sensor_id;sensor_type;location;lat;lon;timestamp;P1;durP1;ratioP1;P2;durP2;ratioP2
45728;SDS011;31439;53.512;10.206;2023-05-07T00:01:25;15.25;;;10.98;;
45728;SDS011;31439;53.512;10.206;2023-05-07T00:03:51;14.02;;;9.85;;
45728;SDS011;31439;53.512;10.206;2023-05-07T00:06:16;15.60;;;11.05;;
45728;SDS011;31439;53.512;10.206;2023-05-07T00:08:42;14.73;;;10.50;;
45728;SDS011;31439;53.512;10.206;2023-05-07T00:11:08;15.07;;;11.65;;
45728;SDS011;31439;53.512;10.206;2023-05-07T00:13:33;14.10;;;10.80;;
45728;SDS011;31439;53.512;10.206;2023-05-07T00:16:01;13.25;;;10.77;;
45728;SDS011;31439;53.512;10.206;2023-05-07T00:18:27;14.20;;;10.43;;
45728;SDS011;31439;53.512;10.206;2023-05-07T00:20:53;13.13;;;10.60;;
45728;SDS011;31439;53.512;10.206;2023-05-07T00:23:18;13.48;;;10.73;;
45728;SDS011;31439;53.512;10.206;2023-05-07T00:25:44;13.30;;;10.23;;
45728;SDS011;31439;53.512;10.206;2023-05-07T00:28:10;13.75;;;10.60;;
45728;SDS011;31439;53.512;10.206;2023-05-07T00:30:36;13.52;;;10.52;;
45728;SDS011;31439;53.512;10.206;2023-05-07T00:33:01;14.25;;;10.65;;
45728;SDS011;31439;53.512;10.206;2023-05-07T00:35:28;14.52;;;11.30;;
45728;SDS011;31439;53.512;10.206;2023-05-07T00:37:54;14.25;;;10.85;;
45728;SDS011;31439;53.512;10.206;2023-05-07T00:40:20;14.15;;;10.20;;
45728;SDS011;31439;53.512;10.206;2023-05-07T00:42:46;15.00;;;10.65;;
45728;SDS011;31439;53.512;10.206;2023-05-07T00:45:13;13.32;;;10.05;;
45728;SDS011;31439;53.512;10.206;2023-05-07T00:47:40;11.73;;;9.35;;
45728;SDS011;31439;53.512;10.206;2023-05-07T00:50:06;12.40;;;9.48;;
45728;SDS011;31439;53.512;10.206;2023-05-07T00:52:34;13.48;;;10.10;;
45728;SDS011;31439;53.512;10.206;2023-05-07T00:55:04;12.48;;;9.00;;
45728;SDS011;31439;53.512;10.206;2023-05-07T00:57:38;10.98;;;8.90;;
45728;SDS011;31439;53.512;10.206;2023-05-07T01:00:06;12.02;;;9.50;;
45728;SDS011;31439;53.512;10.206;2023-05-07T01:02:34;12.07;;;9.63;;
45728;SDS011;31439;53.512;10.206;2023-05-07T01:05:00;12.85;;;9.55;;
45728;SDS011;31439;53.512;10.206;2023-05-07T01:07:28;14.07;;;8.77;;
45728;SDS011;31439;53.512;10.206;2023-05-07T01:09:54;13.90;;;9.30;;
45728;SDS011;31439;53.512;10.206;2023-05-07T01:12:20;12.00;;;9.23;;
45728;SDS011;31439;53.512;10.206;2023-05-07T01:14:47;11.43;;;9.10;;
45728;SDS011;31439;53.512;10.206;2023-05-07T01:17:14;12.48;;;9.48;;
45728;SDS011;31439;53.512;10.206;2023-05-07T01:19:41;11.35;;;8.88;;
45728;SDS011;31439;53.512;10.206;2023-05-07T01:22:07;12.10;;;8.73;;
45728;SDS011;31439;53.512;10.206;2023-05-07T01:24:34;11.77;;;9.10;;
45728;SDS011;31439;53.512;10.206;2023-05-07T01:27:01;10.65;;;8.40;;
45728;SDS011;31439;53.512;10.206;2023-05-07T01:29:27;10.93;;;8.35;;
45728;SDS011;31439;53.512;10.206;2023-05-07T01:31:53;9.85;;;7.93;;
45728;SDS011;31439;53.512;10.206;2023-05-07T01:34:22;11.02;;;8.80;;
45728;SDS011;31439;53.512;10.206;2023-05-07T01:36:49;10.80;;;8.93;;
45728;SDS011;31439;53.512;10.206;2023-05-07T01:39:15;11.52;;;8.45;;
45728;SDS011;31439;53.512;10.206;2023-05-07T01:41:42;12.35;;;8.25;;
45728;SDS011;31439;53.512;10.206;2023-05-07T01:44:08;12.85;;;8.35;;
45728;SDS011;31439;53.512;10.206;2023-05-07T01:46:37;11.45;;;8.90;;
45728;SDS011;31439;53.512;10.206;2023-05-07T01:49:03;11.38;;;8.40;;
45728;SDS011;31439;53.512;10.206;2023-05-07T01:51:29;11.07;;;8.45;;
45728;SDS011;31439;53.512;10.206;2023-05-07T01:53:55;10.23;;;8.52;;
45728;SDS011;31439;53.512;10.206;2023-05-07T01:56:21;10.40;;;8.88;;
45728;SDS011;31439;53.512;10.206;2023-05-07T01:58:46;10.95;;;8.57;;
45728;SDS011;31439;53.512;10.206;2023-05-07T02:01:13;11.55;;;8.50;;
45728;SDS011;31439;53.512;10.206;2023-05-07T02:03:39;10.82;;;7.78;;
45728;SDS011;31439;53.512;10.206;2023-05-07T02:06:05;11.60;;;8.68;;
45728;SDS011;31439;53.512;10.206;2023-05-07T02:08:30;12.07;;;8.38;;
45728;SDS011;31439;53.512;10.206;2023-05-07T02:10:56;11.77;;;8.02;;
45728;SDS011;31439;53.512;10.206;2023-05-07T02:13:22;12.05;;;7.80;;
45728;SDS011;31439;53.512;10.206;2023-05-07T02:15:49;12.68;;;8.23;;
45728;SDS011;31439;53.512;10.206;2023-05-07T02:18:15;10.40;;;7.65;;
45728;SDS011;31439;53.512;10.206;2023-05-07T02:20:42;10.00;;;7.30;;
45728;SDS011;31439;53.512;10.206;2023-05-07T02:23:07;10.80;;;8.20;;
45728;SDS011;31439;53.512;10.206;2023-05-07T02:25:33;10.60;;;7.75;;
45728;SDS011;31439;53.512;10.206;2023-05-07T02:27:59;10.88;;;7.93;;
45728;SDS011;31439;53.512;10.206;2023-05-07T02:30:25;10.30;;;7.30;;
45728;SDS011;31439;53.512;10.206;2023-05-07T02:32:51;10.85;;;7.68;;
45728;SDS011;31439;53.512;10.206;2023-05-07T02:35:16;10.80;;;7.75;;
45728;SDS011;31439;53.512;10.206;2023-05-07T02:37:42;10.90;;;8.07;;
45728;SDS011;31439;53.512;10.206;2023-05-07T02:40:08;10.90;;;7.55;;
45728;SDS011;31439;53.512;10.206;2023-05-07T02:42:35;11.57;;;8.52;;
45728;SDS011;31439;53.512;10.206;2023-05-07T02:45:00;11.10;;;8.15;;
45728;SDS011;31439;53.512;10.206;2023-05-07T02:47:26;11.88;;;8.90;;
45728;SDS011;31439;53.512;10.206;2023-05-07T02:49:53;10.90;;;8.60;;
45728;SDS011;31439;53.512;10.206;2023-05-07T02:52:19;11.20;;;8.48;;
45728;SDS011;31439;53.512;10.206;2023-05-07T02:54:45;11.95;;;8.75;;
45728;SDS011;31439;53.512;10.206;2023-05-07T02:57:11;12.93;;;9.23;;
45728;SDS011;31439;53.512;10.206;2023-05-07T02:59:36;12.93;;;9.40;;
45728;SDS011;31439;53.512;10.206;2023-05-07T03:02:02;14.30;;;9.43;;
45728;SDS011;31439;53.512;10.206;2023-05-07T03:04:28;12.13;;;9.32;;
45728;SDS011;31439;53.512;10.206;2023-05-07T03:06:53;12.63;;;9.73;;
45728;SDS011;31439;53.512;10.206;2023-05-07T03:09:19;13.27;;;9.95;;
45728;SDS011;31439;53.512;10.206;2023-05-07T03:11:45;14.50;;;10.27;;
45728;SDS011;31439;53.512;10.206;2023-05-07T03:14:11;13.40;;;10.23;;
45728;SDS011;31439;53.512;10.206;2023-05-07T03:16:37;13.45;;;10.35;;
45728;SDS011;31439;53.512;10.206;2023-05-07T03:19:03;12.23;;;9.70;;
45728;SDS011;31439;53.512;10.206;2023-05-07T03:21:28;11.95;;;9.55;;
45728;SDS011;31439;53.512;10.206;2023-05-07T03:23:55;12.90;;;9.38;;
45728;SDS011;31439;53.512;10.206;2023-05-07T03:26:21;12.40;;;9.35;;
45728;SDS011;31439;53.512;10.206;2023-05-07T03:28:47;11.77;;;8.93;;
45728;SDS011;31439;53.512;10.206;2023-05-07T03:31:12;12.63;;;9.65;;
45728;SDS011;31439;53.512;10.206;2023-05-07T03:33:42;10.50;;;8.27;;
45728;SDS011;31439;53.512;10.206;2023-05-07T03:36:17;11.52;;;8.57;;
45728;SDS011;31439;53.512;10.206;2023-05-07T03:38:43;11.98;;;8.60;;
45728;SDS011;31439;53.512;10.206;2023-05-07T03:41:09;10.38;;;8.10;;
45728;SDS011;31439;53.512;10.206;2023-05-07T03:43:35;11.85;;;8.65;;
45728;SDS011;31439;53.512;10.206;2023-05-07T03:46:00;11.18;;;8.70;;
45728;SDS011;31439;53.512;10.206;2023-05-07T03:48:26;12.25;;;8.95;;
45728;SDS011;31439;53.512;10.206;2023-05-07T03:50:52;12.68;;;8.88;;
45728;SDS011;31439;53.512;10.206;2023-05-07T03:53:17;11.63;;;8.80;;
45728;SDS011;31439;53.512;10.206;2023-05-07T03:55:43;12.50;;;10.05;;
45728;SDS011;31439;53.512;10.206;2023-05-07T03:58:09;12.60;;;9.25;;
45728;SDS011;31439;53.512;10.206;2023-05-07T04:00:34;10.50;;;8.75;;
45728;SDS011;31439;53.512;10.206;2023-05-07T04:03:03;12.10;;;8.45;;
45728;SDS011;31439;53.512;10.206;2023-05-07T04:05:30;12.82;;;8.95;;
45728;SDS011;31439;53.512;10.206;2023-05-07T04:07:57;12.27;;;9.02;;
45728;SDS011;31439;53.512;10.206;2023-05-07T04:10:23;11.82;;;8.63;;
45728;SDS011;31439;53.512;10.206;2023-05-07T04:12:49;10.15;;;8.10;;
45728;SDS011;31439;53.512;10.206;2023-05-07T04:15:15;12.30;;;8.52;;
45728;SDS011;31439;53.512;10.206;2023-05-07T04:17:40;12.05;;;8.60;;
45728;SDS011;31439;53.512;10.206;2023-05-07T04:20:08;10.55;;;8.07;;
45728;SDS011;31439;53.512;10.206;2023-05-07T04:22:35;10.52;;;8.20;;
45728;SDS011;31439;53.512;10.206;2023-05-07T04:25:01;11.48;;;8.48;;
45728;SDS011;31439;53.512;10.206;2023-05-07T04:27:27;9.75;;;7.70;;
45728;SDS011;31439;53.512;10.206;2023-05-07T04:29:53;9.77;;;7.55;;
45728;SDS011;31439;53.512;10.206;2023-05-07T04:32:20;10.93;;;7.80;;
45728;SDS011;31439;53.512;10.206;2023-05-07T04:34:47;8.90;;;7.15;;
45728;SDS011;31439;53.512;10.206;2023-05-07T04:37:13;8.73;;;7.10;;
45728;SDS011;31439;53.512;10.206;2023-05-07T04:39:38;10.45;;;7.70;;
45728;SDS011;31439;53.512;10.206;2023-05-07T04:42:04;10.65;;;7.93;;
45728;SDS011;31439;53.512;10.206;2023-05-07T04:44:32;13.00;;;7.90;;
45728;SDS011;31439;53.512;10.206;2023-05-07T04:46:59;11.52;;;8.45;;
45728;SDS011;31439;53.512;10.206;2023-05-07T04:49:25;11.27;;;8.25;;
45728;SDS011;31439;53.512;10.206;2023-05-07T04:51:50;11.38;;;8.38;;
45728;SDS011;31439;53.512;10.206;2023-05-07T04:54:16;11.27;;;8.13;;
45728;SDS011;31439;53.512;10.206;2023-05-07T04:56:42;10.82;;;7.93;;
45728;SDS011;31439;53.512;10.206;2023-05-07T04:59:07;10.98;;;8.35;;
45728;SDS011;31439;53.512;10.206;2023-05-07T05:01:33;9.27;;;7.85;;
45728;SDS011;31439;53.512;10.206;2023-05-07T05:03:58;11.98;;;8.38;;
45728;SDS011;31439;53.512;10.206;2023-05-07T05:06:25;11.20;;;8.27;;
45728;SDS011;31439;53.512;10.206;2023-05-07T05:08:51;12.95;;;8.18;;
45728;SDS011;31439;53.512;10.206;2023-05-07T05:11:16;10.68;;;7.82;;
45728;SDS011;31439;53.512;10.206;2023-05-07T05:13:42;11.15;;;8.25;;
45728;SDS011;31439;53.512;10.206;2023-05-07T05:16:08;11.35;;;8.07;;
45728;SDS011;31439;53.512;10.206;2023-05-07T05:18:34;10.80;;;8.10;;
45728;SDS011;31439;53.512;10.206;2023-05-07T05:20:59;11.80;;;8.65;;
45728;SDS011;31439;53.512;10.206;2023-05-07T05:23:25;10.45;;;7.85;;
45728;SDS011;31439;53.512;10.206;2023-05-07T05:25:55;10.57;;;8.40;;
45728;SDS011;31439;53.512;10.206;2023-05-07T05:28:22;12.73;;;8.63;;
45728;SDS011;31439;53.512;10.206;2023-05-07T05:30:48;11.93;;;8.82;;
45728;SDS011;31439;53.512;10.206;2023-05-07T05:33:14;12.25;;;8.85;;
45728;SDS011;31439;53.512;10.206;2023-05-07T05:35:40;12.85;;;8.98;;
45728;SDS011;31439;53.512;10.206;2023-05-07T05:38:06;12.05;;;8.68;;
45728;SDS011;31439;53.512;10.206;2023-05-07T05:40:32;11.70;;;9.05;;
45728;SDS011;31439;53.512;10.206;2023-05-07T05:42:58;10.95;;;8.55;;
45728;SDS011;31439;53.512;10.206;2023-05-07T05:45:24;10.73;;;8.25;;
45728;SDS011;31439;53.512;10.206;2023-05-07T05:47:50;10.60;;;8.45;;
45728;SDS011;31439;53.512;10.206;2023-05-07T05:50:15;11.18;;;8.40;;
45728;SDS011;31439;53.512;10.206;2023-05-07T05:52:41;10.15;;;8.15;;
45728;SDS011;31439;53.512;10.206;2023-05-07T05:55:07;10.50;;;8.32;;
45728;SDS011;31439;53.512;10.206;2023-05-07T05:57:33;10.80;;;8.32;;
45728;SDS011;31439;53.512;10.206;2023-05-07T05:59:59;10.57;;;8.02;;
45728;SDS011;31439;53.512;10.206;2023-05-07T06:02:26;9.95;;;7.82;;
45728;SDS011;31439;53.512;10.206;2023-05-07T06:04:51;10.77;;;8.20;;
45728;SDS011;31439;53.512;10.206;2023-05-07T06:07:17;12.15;;;8.30;;
45728;SDS011;31439;53.512;10.206;2023-05-07T06:09:43;11.32;;;7.97;;
45728;SDS011;31439;53.512;10.206;2023-05-07T06:12:09;10.82;;;8.48;;
45728;SDS011;31439;53.512;10.206;2023-05-07T06:14:34;9.75;;;7.60;;
45728;SDS011;31439;53.512;10.206;2023-05-07T06:17:00;12.25;;;7.80;;
45728;SDS011;31439;53.512;10.206;2023-05-07T06:19:26;10.57;;;7.85;;
45728;SDS011;31439;53.512;10.206;2023-05-07T06:21:53;10.13;;;7.75;;
45728;SDS011;31439;53.512;10.206;2023-05-07T06:24:18;10.23;;;7.32;;
45728;SDS011;31439;53.512;10.206;2023-05-07T06:26:44;11.55;;;7.53;;
45728;SDS011;31439;53.512;10.206;2023-05-07T06:29:10;10.35;;;7.65;;
45728;SDS011;31439;53.512;10.206;2023-05-07T06:31:35;9.80;;;7.30;;
45728;SDS011;31439;53.512;10.206;2023-05-07T06:34:01;9.90;;;7.50;;
45728;SDS011;31439;53.512;10.206;2023-05-07T06:36:27;9.50;;;7.25;;
45728;SDS011;31439;53.512;10.206;2023-05-07T06:38:53;9.45;;;7.50;;
45728;SDS011;31439;53.512;10.206;2023-05-07T06:41:19;9.45;;;6.88;;
45728;SDS011;31439;53.512;10.206;2023-05-07T06:43:45;10.02;;;7.10;;
45728;SDS011;31439;53.512;10.206;2023-05-07T06:46:11;9.30;;;6.43;;
45728;SDS011;31439;53.512;10.206;2023-05-07T06:48:36;9.30;;;7.03;;
45728;SDS011;31439;53.512;10.206;2023-05-07T06:51:02;9.25;;;7.10;;
45728;SDS011;31439;53.512;10.206;2023-05-07T06:53:28;9.18;;;6.65;;
45728;SDS011;31439;53.512;10.206;2023-05-07T06:55:55;9.15;;;7.00;;
45728;SDS011;31439;53.512;10.206;2023-05-07T06:58:21;10.40;;;7.25;;
45728;SDS011;31439;53.512;10.206;2023-05-07T07:00:47;10.45;;;7.47;;
45728;SDS011;31439;53.512;10.206;2023-05-07T07:03:13;9.48;;;7.10;;
45728;SDS011;31439;53.512;10.206;2023-05-07T07:05:40;8.38;;;6.60;;
45728;SDS011;31439;53.512;10.206;2023-05-07T07:08:06;10.05;;;6.93;;
45728;SDS011;31439;53.512;10.206;2023-05-07T07:10:31;8.75;;;6.40;;
45728;SDS011;31439;53.512;10.206;2023-05-07T07:12:57;8.07;;;6.30;;
45728;SDS011;31439;53.512;10.206;2023-05-07T07:15:23;9.30;;;6.53;;
45728;SDS011;31439;53.512;10.206;2023-05-07T07:17:50;8.15;;;6.53;;
45728;SDS011;31439;53.512;10.206;2023-05-07T07:20:16;8.02;;;6.40;;
45728;SDS011;31439;53.512;10.206;2023-05-07T07:22:42;8.23;;;6.68;;
45728;SDS011;31439;53.512;10.206;2023-05-07T07:25:07;10.27;;;6.60;;
45728;SDS011;31439;53.512;10.206;2023-05-07T07:27:34;7.93;;;6.10;;
45728;SDS011;31439;53.512;10.206;2023-05-07T07:29:59;7.43;;;6.03;;
45728;SDS011;31439;53.512;10.206;2023-05-07T07:32:25;8.15;;;6.22;;
45728;SDS011;31439;53.512;10.206;2023-05-07T07:34:51;7.53;;;6.10;;
45728;SDS011;31439;53.512;10.206;2023-05-07T07:37:16;10.20;;;5.95;;
45728;SDS011;31439;53.512;10.206;2023-05-07T07:39:42;6.60;;;5.80;;
45728;SDS011;31439;53.512;10.206;2023-05-07T07:42:08;11.38;;;6.35;;
45728;SDS011;31439;53.512;10.206;2023-05-07T07:44:34;7.07;;;5.80;;
45728;SDS011;31439;53.512;10.206;2023-05-07T07:46:59;7.45;;;4.70;;
45728;SDS011;31439;53.512;10.206;2023-05-07T07:49:25;7.75;;;5.70;;
45728;SDS011;31439;53.512;10.206;2023-05-07T07:51:51;9.68;;;5.75;;
45728;SDS011;31439;53.512;10.206;2023-05-07T07:54:17;6.75;;;5.20;;
45728;SDS011;31439;53.512;10.206;2023-05-07T07:56:43;7.07;;;5.15;;
45728;SDS011;31439;53.512;10.206;2023-05-07T07:59:08;8.18;;;5.63;;
45728;SDS011;31439;53.512;10.206;2023-05-07T08:01:34;7.68;;;5.70;;
45728;SDS011;31439;53.512;10.206;2023-05-07T08:04:00;7.55;;;6.50;;
45728;SDS011;31439;53.512;10.206;2023-05-07T08:06:28;8.75;;;5.95;;
45728;SDS011;31439;53.512;10.206;2023-05-07T08:08:54;7.57;;;5.88;;
45728;SDS011;31439;53.512;10.206;2023-05-07T08:11:20;8.88;;;6.50;;
45728;SDS011;31439;53.512;10.206;2023-05-07T08:13:46;7.45;;;6.13;;
45728;SDS011;31439;53.512;10.206;2023-05-07T08:16:12;7.95;;;6.03;;
45728;SDS011;31439;53.512;10.206;2023-05-07T08:18:38;7.47;;;6.15;;
45728;SDS011;31439;53.512;10.206;2023-05-07T08:21:04;8.38;;;6.45;;
45728;SDS011;31439;53.512;10.206;2023-05-07T08:23:30;8.82;;;6.22;;
45728;SDS011;31439;53.512;10.206;2023-05-07T08:25:55;9.50;;;6.65;;
45728;SDS011;31439;53.512;10.206;2023-05-07T08:28:21;7.78;;;5.88;;
45728;SDS011;31439;53.512;10.206;2023-05-07T08:30:47;7.97;;;5.95;;
45728;SDS011;31439;53.512;10.206;2023-05-07T08:33:12;8.25;;;5.90;;
45728;SDS011;31439;53.512;10.206;2023-05-07T08:35:38;8.85;;;6.72;;
45728;SDS011;31439;53.512;10.206;2023-05-07T08:38:04;10.40;;;5.75;;
45728;SDS011;31439;53.512;10.206;2023-05-07T08:40:29;8.40;;;6.00;;
45728;SDS011;31439;53.512;10.206;2023-05-07T08:43:02;8.07;;;5.70;;
45728;SDS011;31439;53.512;10.206;2023-05-07T08:45:33;7.63;;;5.80;;
45728;SDS011;31439;53.512;10.206;2023-05-07T08:48:01;8.60;;;6.55;;
45728;SDS011;31439;53.512;10.206;2023-05-07T08:50:28;7.35;;;5.18;;
45728;SDS011;31439;53.512;10.206;2023-05-07T08:52:54;6.70;;;5.70;;
45728;SDS011;31439;53.512;10.206;2023-05-07T08:55:22;7.28;;;5.45;;
45728;SDS011;31439;53.512;10.206;2023-05-07T08:57:48;9.20;;;5.85;;
45728;SDS011;31439;53.512;10.206;2023-05-07T09:00:15;9.23;;;5.68;;
45728;SDS011;31439;53.512;10.206;2023-05-07T09:02:40;6.68;;;5.35;;
45728;SDS011;31439;53.512;10.206;2023-05-07T09:05:06;8.93;;;5.88;;
45728;SDS011;31439;53.512;10.206;2023-05-07T09:07:32;8.27;;;5.97;;
45728;SDS011;31439;53.512;10.206;2023-05-07T09:10:00;9.23;;;5.88;;
45728;SDS011;31439;53.512;10.206;2023-05-07T09:12:30;8.70;;;6.00;;
45728;SDS011;31439;53.512;10.206;2023-05-07T09:14:56;7.32;;;5.43;;
45728;SDS011;31439;53.512;10.206;2023-05-07T09:17:22;7.53;;;5.22;;
45728;SDS011;31439;53.512;10.206;2023-05-07T09:19:47;7.63;;;5.65;;
45728;SDS011;31439;53.512;10.206;2023-05-07T09:22:13;6.80;;;5.32;;
45728;SDS011;31439;53.512;10.206;2023-05-07T09:24:39;7.05;;;5.35;;
45728;SDS011;31439;53.512;10.206;2023-05-07T09:27:05;8.55;;;5.75;;
45728;SDS011;31439;53.512;10.206;2023-05-07T09:29:33;6.05;;;5.22;;
45728;SDS011;31439;53.512;10.206;2023-05-07T09:32:02;8.07;;;5.18;;
45728;SDS011;31439;53.512;10.206;2023-05-07T09:34:30;9.75;;;5.53;;
45728;SDS011;31439;53.512;10.206;2023-05-07T09:36:56;6.45;;;5.38;;
45728;SDS011;31439;53.512;10.206;2023-05-07T09:39:23;6.97;;;5.28;;
45728;SDS011;31439;53.512;10.206;2023-05-07T09:41:50;8.82;;;5.50;;
45728;SDS011;31439;53.512;10.206;2023-05-07T09:44:19;7.40;;;4.90;;
45728;SDS011;31439;53.512;10.206;2023-05-07T09:46:45;7.75;;;5.60;;
45728;SDS011;31439;53.512;10.206;2023-05-07T09:49:22;7.95;;;5.65;;
45728;SDS011;31439;53.512;10.206;2023-05-07T09:51:50;6.22;;;5.18;;
45728;SDS011;31439;53.512;10.206;2023-05-07T09:54:17;6.07;;;5.18;;
45728;SDS011;31439;53.512;10.206;2023-05-07T09:56:44;6.30;;;5.13;;
45728;SDS011;31439;53.512;10.206;2023-05-07T09:59:12;9.23;;;5.95;;
45728;SDS011;31439;53.512;10.206;2023-05-07T10:01:38;7.75;;;5.18;;
45728;SDS011;31439;53.512;10.206;2023-05-07T10:04:10;7.03;;;5.68;;
45728;SDS011;31439;53.512;10.206;2023-05-07T10:06:36;7.25;;;5.45;;
45728;SDS011;31439;53.512;10.206;2023-05-07T10:09:02;7.45;;;5.22;;
45728;SDS011;31439;53.512;10.206;2023-05-07T10:11:33;7.18;;;5.30;;
45728;SDS011;31439;53.512;10.206;2023-05-07T10:14:00;9.30;;;5.07;;
45728;SDS011;31439;53.512;10.206;2023-05-07T10:16:28;6.75;;;5.00;;
45728;SDS011;31439;53.512;10.206;2023-05-07T10:19:02;6.25;;;4.97;;
45728;SDS011;31439;53.512;10.206;2023-05-07T10:21:39;7.07;;;5.55;;
45728;SDS011;31439;53.512;10.206;2023-05-07T10:24:10;6.03;;;5.05;;
45728;SDS011;31439;53.512;10.206;2023-05-07T10:26:44;5.80;;;5.15;;
45728;SDS011;31439;53.512;10.206;2023-05-07T10:34:54;6.68;;;4.60;;
45728;SDS011;31439;53.512;10.206;2023-05-07T10:37:23;6.00;;;4.35;;
45728;SDS011;31439;53.512;10.206;2023-05-07T10:39:49;4.97;;;3.75;;
45728;SDS011;31439;53.512;10.206;2023-05-07T10:42:16;6.28;;;4.57;;
45728;SDS011;31439;53.512;10.206;2023-05-07T10:44:42;7.07;;;4.15;;
45728;SDS011;31439;53.512;10.206;2023-05-07T10:47:08;5.47;;;4.53;;
45728;SDS011;31439;53.512;10.206;2023-05-07T10:50:20;5.60;;;4.03;;
45728;SDS011;31439;53.512;10.206;2023-05-07T10:52:30;5.93;;;4.13;;
45728;SDS011;31439;53.512;10.206;2023-05-07T10:57:40;5.22;;;4.03;;
45728;SDS011;31439;53.512;10.206;2023-05-07T11:05:28;4.82;;;3.80;;
45728;SDS011;31439;53.512;10.206;2023-05-07T11:07:56;7.07;;;3.90;;
45728;SDS011;31439;53.512;10.206;2023-05-07T11:10:22;4.80;;;4.00;;
45728;SDS011;31439;53.512;10.206;2023-05-07T11:15:15;4.82;;;3.72;;
45728;SDS011;31439;53.512;10.206;2023-05-07T11:17:59;4.93;;;3.50;;
45728;SDS011;31439;53.512;10.206;2023-05-07T11:24:06;4.85;;;3.88;;
45728;SDS011;31439;53.512;10.206;2023-05-07T11:26:09;4.15;;;3.53;;
45728;SDS011;31439;53.512;10.206;2023-05-07T11:28:37;5.40;;;3.83;;
45728;SDS011;31439;53.512;10.206;2023-05-07T11:31:07;4.95;;;3.80;;
45728;SDS011;31439;53.512;10.206;2023-05-07T11:33:34;7.57;;;3.40;;
45728;SDS011;31439;53.512;10.206;2023-05-07T11:36:00;4.85;;;3.53;;
45728;SDS011;31439;53.512;10.206;2023-05-07T11:38:28;4.80;;;3.20;;
45728;SDS011;31439;53.512;10.206;2023-05-07T11:40:58;4.25;;;3.30;;
45728;SDS011;31439;53.512;10.206;2023-05-07T11:43:29;4.47;;;3.10;;
45728;SDS011;31439;53.512;10.206;2023-05-07T11:45:58;4.60;;;3.03;;
45728;SDS011;31439;53.512;10.206;2023-05-07T11:48:39;5.35;;;3.10;;
45728;SDS011;31439;53.512;10.206;2023-05-07T11:51:07;4.10;;;3.05;;
45728;SDS011;31439;53.512;10.206;2023-05-07T11:53:38;4.43;;;3.00;;
45728;SDS011;31439;53.512;10.206;2023-05-07T11:56:12;5.10;;;2.97;;
45728;SDS011;31439;53.512;10.206;2023-05-07T11:58:39;5.05;;;3.00;;
45728;SDS011;31439;53.512;10.206;2023-05-07T12:01:07;3.88;;;2.80;;
45728;SDS011;31439;53.512;10.206;2023-05-07T12:03:34;3.10;;;2.40;;
45728;SDS011;31439;53.512;10.206;2023-05-07T12:06:07;4.70;;;2.63;;
45728;SDS011;31439;53.512;10.206;2023-05-07T12:08:35;3.25;;;2.42;;
45728;SDS011;31439;53.512;10.206;2023-05-07T12:11:03;5.45;;;2.90;;
45728;SDS011;31439;53.512;10.206;2023-05-07T12:13:31;3.60;;;2.65;;
45728;SDS011;31439;53.512;10.206;2023-05-07T12:15:57;3.63;;;2.58;;
45728;SDS011;31439;53.512;10.206;2023-05-07T12:18:23;3.15;;;2.10;;
45728;SDS011;31439;53.512;10.206;2023-05-07T12:20:49;3.83;;;2.33;;
45728;SDS011;31439;53.512;10.206;2023-05-07T12:23:16;3.75;;;2.28;;
45728;SDS011;31439;53.512;10.206;2023-05-07T12:25:42;3.15;;;2.20;;
45728;SDS011;31439;53.512;10.206;2023-05-07T12:28:15;4.63;;;2.40;;
45728;SDS011;31439;53.512;10.206;2023-05-07T12:30:42;4.57;;;2.20;;
45728;SDS011;31439;53.512;10.206;2023-05-07T12:33:09;4.28;;;2.33;;
45728;SDS011;31439;53.512;10.206;2023-05-07T12:35:41;3.67;;;2.33;;
45728;SDS011;31439;53.512;10.206;2023-05-07T12:38:12;3.42;;;2.70;;
45728;SDS011;31439;53.512;10.206;2023-05-07T12:40:45;2.95;;;2.20;;
45728;SDS011;31439;53.512;10.206;2023-05-07T12:43:19;4.40;;;2.33;;
45728;SDS011;31439;53.512;10.206;2023-05-07T12:45:47;3.85;;;2.10;;
45728;SDS011;31439;53.512;10.206;2023-05-07T12:48:15;2.95;;;2.22;;
45728;SDS011;31439;53.512;10.206;2023-05-07T12:50:41;2.95;;;2.05;;
45728;SDS011;31439;53.512;10.206;2023-05-07T12:53:07;3.10;;;2.22;;
45728;SDS011;31439;53.512;10.206;2023-05-07T12:55:43;2.92;;;2.22;;
45728;SDS011;31439;53.512;10.206;2023-05-07T12:58:33;4.00;;;2.30;;
45728;SDS011;31439;53.512;10.206;2023-05-07T13:00:59;3.30;;;2.20;;
45728;SDS011;31439;53.512;10.206;2023-05-07T13:03:29;3.40;;;2.30;;
45728;SDS011;31439;53.512;10.206;2023-05-07T13:06:02;3.00;;;2.33;;
45728;SDS011;31439;53.512;10.206;2023-05-07T13:08:33;3.03;;;2.30;;
45728;SDS011;31439;53.512;10.206;2023-05-07T13:11:02;5.07;;;2.35;;
45728;SDS011;31439;53.512;10.206;2023-05-07T13:13:30;3.38;;;2.10;;
45728;SDS011;31439;53.512;10.206;2023-05-07T13:15:56;3.72;;;2.10;;
45728;SDS011;31439;53.512;10.206;2023-05-07T13:18:21;3.35;;;1.95;;
45728;SDS011;31439;53.512;10.206;2023-05-07T13:20:49;3.47;;;2.20;;
45728;SDS011;31439;53.512;10.206;2023-05-07T13:23:14;2.90;;;2.00;;
45728;SDS011;31439;53.512;10.206;2023-05-07T13:25:40;2.75;;;2.10;;
45728;SDS011;31439;53.512;10.206;2023-05-07T13:28:05;3.00;;;1.85;;
45728;SDS011;31439;53.512;10.206;2023-05-07T13:30:31;2.92;;;2.08;;
45728;SDS011;31439;53.512;10.206;2023-05-07T13:32:57;3.25;;;2.03;;
45728;SDS011;31439;53.512;10.206;2023-05-07T13:35:22;3.67;;;2.00;;
45728;SDS011;31439;53.512;10.206;2023-05-07T13:37:48;3.30;;;1.83;;
45728;SDS011;31439;53.512;10.206;2023-05-07T13:40:14;2.42;;;1.80;;
45728;SDS011;31439;53.512;10.206;2023-05-07T13:42:40;2.97;;;2.03;;
45728;SDS011;31439;53.512;10.206;2023-05-07T13:45:06;2.47;;;1.77;;
45728;SDS011;31439;53.512;10.206;2023-05-07T13:47:33;2.90;;;1.80;;
45728;SDS011;31439;53.512;10.206;2023-05-07T13:49:58;3.50;;;1.80;;
45728;SDS011;31439;53.512;10.206;2023-05-07T13:52:24;3.42;;;1.90;;
45728;SDS011;31439;53.512;10.206;2023-05-07T13:54:50;5.07;;;1.70;;
45728;SDS011;31439;53.512;10.206;2023-05-07T13:57:17;3.10;;;1.90;;
45728;SDS011;31439;53.512;10.206;2023-05-07T13:59:43;3.42;;;2.10;;
45728;SDS011;31439;53.512;10.206;2023-05-07T14:02:09;2.47;;;1.90;;
45728;SDS011;31439;53.512;10.206;2023-05-07T14:04:34;3.13;;;1.88;;
45728;SDS011;31439;53.512;10.206;2023-05-07T14:07:00;2.22;;;1.77;;
45728;SDS011;31439;53.512;10.206;2023-05-07T14:09:26;2.35;;;1.88;;
45728;SDS011;31439;53.512;10.206;2023-05-07T14:11:51;2.58;;;1.77;;
45728;SDS011;31439;53.512;10.206;2023-05-07T14:14:18;4.30;;;1.92;;
45728;SDS011;31439;53.512;10.206;2023-05-07T14:16:44;2.53;;;1.73;;
45728;SDS011;31439;53.512;10.206;2023-05-07T14:19:10;3.00;;;1.77;;
45728;SDS011;31439;53.512;10.206;2023-05-07T14:21:36;2.72;;;1.90;;
45728;SDS011;31439;53.512;10.206;2023-05-07T14:24:02;3.40;;;1.85;;
45728;SDS011;31439;53.512;10.206;2023-05-07T14:26:28;2.60;;;1.67;;
45728;SDS011;31439;53.512;10.206;2023-05-07T14:28:54;3.00;;;2.05;;
45728;SDS011;31439;53.512;10.206;2023-05-07T14:31:22;3.13;;;2.13;;
45728;SDS011;31439;53.512;10.206;2023-05-07T14:33:48;2.72;;;1.83;;
45728;SDS011;31439;53.512;10.206;2023-05-07T14:36:15;4.55;;;1.90;;
45728;SDS011;31439;53.512;10.206;2023-05-07T14:38:49;2.80;;;1.80;;
45728;SDS011;31439;53.512;10.206;2023-05-07T14:41:15;3.78;;;2.17;;
45728;SDS011;31439;53.512;10.206;2023-05-07T14:43:41;4.57;;;1.80;;
45728;SDS011;31439;53.512;10.206;2023-05-07T14:46:06;3.85;;;2.00;;